sensor_id;sensor_type;location;lat;lon;timestamp;pressure;altitude;pressure_sealevel;temperature;humidity
17855;BME280;9053;53.358;6.382;2023-05-20T00:00:08;102719.63;;;13.04;99.15
17855;BME280;9053;53.358;6.382;2023-05-20T00:02:44;102719.34;;;12.99;99.34
17855;BME280;9053;53.358;6.382;2023-05-20T00:05:23;102722.75;;;12.96;99.29
17855;BME280;9053;53.358;6.382;2023-05-20T00:07:53;102712.81;;;12.92;99.66
17855;BME280;9053;53.358;6.382;2023-05-20T00:10:23;102722.66;;;12.95;100.00
17855;BME280;9053;53.358;6.382;2023-05-20T00:12:54;102717.72;;;13.01;100.00
17855;BME280;9053;53.358;6.382;2023-05-20T00:15:27;102716.22;;;13.06;100.00
17855;BME280;9053;53.358;6.382;2023-05-20T00:17:59;102707.41;;;13.06;100.00
17855;BME280;9053;53.358;6.382;2023-05-20T00:20:33;102712.50;;;13.03;100.00
17855;BME280;9053;53.358;6.382;2023-05-20T00:23:03;102704.16;;;12.95;100.00
17855;BME280;9053;53.358;6.382;2023-05-20T00:25:41;102698.81;;;12.93;100.00
17855;BME280;9053;53.358;6.382;2023-05-20T00:28:14;102696.81;;;12.89;100.00
17855;BME280;9053;53.358;6.382;2023-05-20T00:30:55;102704.00;;;12.92;100.00
17855;BME280;9053;53.358;6.382;2023-05-20T00:33:34;102696.97;;;12.92;100.00
17855;BME280;9053;53.358;6.382;2023-05-20T00:36:08;102700.72;;;12.96;100.00
17855;BME280;9053;53.358;6.382;2023-05-20T00:38:41;102705.09;;;12.95;100.00
17855;BME280;9053;53.358;6.382;2023-05-20T00:41:13;102693.69;;;12.96;100.00
17855;BME280;9053;53.358;6.382;2023-05-20T00:43:43;102697.22;;;12.97;100.00
17855;BME280;9053;53.358;6.382;2023-05-20T00:46:16;102682.13;;;12.94;100.00
17855;BME280;9053;53.358;6.382;2023-05-20T00:48:52;102688.75;;;12.86;100.00
17855;BME280;9053;53.358;6.382;2023-05-20T00:51:28;102688.59;;;12.83;100.00
17855;BME280;9053;53.358;6.382;2023-05-20T00:53:59;102680.41;;;12.78;100.00
17855;BME280;9053;53.358;6.382;2023-05-20T00:56:29;102675.38;;;12.83;100.00
17855;BME280;9053;53.358;6.382;2023-05-20T00:59:02;102680.66;;;12.83;100.00
17855;BME280;9053;53.358;6.382;2023-05-20T01:01:34;102687.59;;;12.81;100.00
17855;BME280;9053;53.358;6.382;2023-05-20T01:04:13;102690.88;;;12.77;100.00
17855;BME280;9053;53.358;6.382;2023-05-20T01:06:48;102687.91;;;12.71;100.00
17855;BME280;9053;53.358;6.382;2023-05-20T01:09:20;102686.81;;;12.67;100.00
17855;BME280;9053;53.358;6.382;2023-05-20T01:12:02;102679.16;;;12.72;100.00
17855;BME280;9053;53.358;6.382;2023-05-20T01:14:42;102692.72;;;12.78;100.00
17855;BME280;9053;53.358;6.382;2023-05-20T01:17:19;102686.75;;;12.82;100.00
17855;BME280;9053;53.358;6.382;2023-05-20T01:20:00;102683.53;;;12.71;100.00
17855;BME280;9053;53.358;6.382;2023-05-20T01:28:20;102671.34;;;12.73;100.00
17855;BME280;9053;53.358;6.382;2023-05-20T01:31:14;102673.97;;;12.73;100.00
17855;BME280;9053;53.358;6.382;2023-05-20T01:34:06;102681.00;;;12.73;100.00
17855;BME280;9053;53.358;6.382;2023-05-20T01:36:36;102680.00;;;12.71;100.00
17855;BME280;9053;53.358;6.382;2023-05-20T01:39:13;102674.72;;;12.71;100.00
17855;BME280;9053;53.358;6.382;2023-05-20T01:41:50;102667.31;;;12.80;100.00
17855;BME280;9053;53.358;6.382;2023-05-20T01:44:22;102666.97;;;12.74;100.00
17855;BME280;9053;53.358;6.382;2023-05-20T01:46:53;102677.34;;;12.71;100.00
17855;BME280;9053;53.358;6.382;2023-05-20T01:49:28;102676.34;;;12.69;100.00
17855;BME280;9053;53.358;6.382;2023-05-20T01:52:03;102676.84;;;12.62;100.00
17855;BME280;9053;53.358;6.382;2023-05-20T01:54:33;102679.59;;;12.63;100.00
17855;BME280;9053;53.358;6.382;2023-05-20T01:57:09;102670.75;;;12.63;100.00
17855;BME280;9053;53.358;6.382;2023-05-20T01:59:47;102668.19;;;12.64;100.00
17855;BME280;9053;53.358;6.382;2023-05-20T02:02:17;102670.66;;;12.61;100.00
17855;BME280;9053;53.358;6.382;2023-05-20T02:04:52;102679.22;;;12.57;100.00
17855;BME280;9053;53.358;6.382;2023-05-20T02:07:37;102676.00;;;12.46;100.00
17855;BME280;9053;53.358;6.382;2023-05-20T02:10:10;102670.09;;;12.50;100.00
17855;BME280;9053;53.358;6.382;2023-05-20T02:18:46;102667.09;;;12.44;100.00
17855;BME280;9053;53.358;6.382;2023-05-20T02:21:21;102670.22;;;12.37;100.00
17855;BME280;9053;53.358;6.382;2023-05-20T02:37:58;102660.81;;;12.42;99.96
17855;BME280;9053;53.358;6.382;2023-05-20T02:40:58;102658.25;;;12.27;99.76
17855;BME280;9053;53.358;6.382;2023-05-20T02:43:30;102661.06;;;12.30;99.89
17855;BME280;9053;53.358;6.382;2023-05-20T02:46:03;102656.78;;;12.32;99.64
17855;BME280;9053;53.358;6.382;2023-05-20T02:48:33;102661.13;;;12.32;99.53
17855;BME280;9053;53.358;6.382;2023-05-20T02:51:03;102657.69;;;12.33;99.43
17855;BME280;9053;53.358;6.382;2023-05-20T02:53:36;102657.84;;;12.36;99.36
17855;BME280;9053;53.358;6.382;2023-05-20T02:56:12;102657.69;;;12.33;99.06
17855;BME280;9053;53.358;6.382;2023-05-20T03:01:27;102660.38;;;12.34;98.77
17855;BME280;9053;53.358;6.382;2023-05-20T03:03:57;102659.22;;;12.29;98.38
17855;BME280;9053;53.358;6.382;2023-05-20T03:06:27;102661.81;;;12.28;98.21
17855;BME280;9053;53.358;6.382;2023-05-20T03:09:02;102664.59;;;12.31;98.11
17855;BME280;9053;53.358;6.382;2023-05-20T03:11:42;102659.50;;;12.34;97.76
17855;BME280;9053;53.358;6.382;2023-05-20T03:14:15;102667.50;;;12.36;97.31
17855;BME280;9053;53.358;6.382;2023-05-20T03:16:45;102666.66;;;12.37;97.02
17855;BME280;9053;53.358;6.382;2023-05-20T03:19:19;102664.59;;;12.31;96.68
17855;BME280;9053;53.358;6.382;2023-05-20T03:21:49;102660.22;;;12.31;96.25
17855;BME280;9053;53.358;6.382;2023-05-20T03:24:22;102654.78;;;12.28;95.83
17855;BME280;9053;53.358;6.382;2023-05-20T03:26:54;102661.44;;;12.22;95.65
17855;BME280;9053;53.358;6.382;2023-05-20T03:29:30;102659.63;;;12.21;95.20
17855;BME280;9053;53.358;6.382;2023-05-20T03:32:04;102658.06;;;12.24;94.84
17855;BME280;9053;53.358;6.382;2023-05-20T03:34:41;102665.19;;;12.25;94.28
17855;BME280;9053;53.358;6.382;2023-05-20T03:37:11;102662.09;;;12.18;93.67
17855;BME280;9053;53.358;6.382;2023-05-20T03:39:49;102654.25;;;12.19;93.49
17855;BME280;9053;53.358;6.382;2023-05-20T03:42:26;102657.84;;;12.20;93.32
17855;BME280;9053;53.358;6.382;2023-05-20T03:44:56;102657.84;;;12.20;93.02
17855;BME280;9053;53.358;6.382;2023-05-20T03:47:41;102659.22;;;12.13;92.48
17855;BME280;9053;53.358;6.382;2023-05-20T03:50:11;102647.75;;;12.12;92.29
17855;BME280;9053;53.358;6.382;2023-05-20T03:52:47;102657.63;;;12.17;92.08
17855;BME280;9053;53.358;6.382;2023-05-20T03:55:21;102658.47;;;12.16;91.92
17855;BME280;9053;53.358;6.382;2023-05-20T03:57:54;102659.72;;;12.22;91.63
17855;BME280;9053;53.358;6.382;2023-05-20T04:00:24;102660.81;;;12.26;91.32
17855;BME280;9053;53.358;6.382;2023-05-20T04:02:56;102654.25;;;12.19;90.97
17855;BME280;9053;53.358;6.382;2023-05-20T04:05:32;102655.00;;;12.17;91.00
17855;BME280;9053;53.358;6.382;2023-05-20T04:08:02;102654.19;;;12.18;90.90
17855;BME280;9053;53.358;6.382;2023-05-20T04:10:35;102652.47;;;12.18;90.54
17855;BME280;9053;53.358;6.382;2023-05-20T04:13:05;102658.38;;;12.14;90.25
17855;BME280;9053;53.358;6.382;2023-05-20T04:15:35;102657.13;;;12.07;90.28
17855;BME280;9053;53.358;6.382;2023-05-20T04:18:07;102657.13;;;12.07;90.20
17855;BME280;9053;53.358;6.382;2023-05-20T04:20:39;102660.03;;;12.12;90.07
17855;BME280;9053;53.358;6.382;2023-05-20T04:23:09;102662.56;;;12.10;89.97
17855;BME280;9053;53.358;6.382;2023-05-20T04:25:43;102665.69;;;12.03;90.00
17855;BME280;9053;53.358;6.382;2023-05-20T04:28:14;102663.94;;;12.04;90.03
17855;BME280;9053;53.358;6.382;2023-05-20T04:30:49;102664.06;;;12.05;90.03
17855;BME280;9053;53.358;6.382;2023-05-20T04:33:39;102674.66;;;12.07;89.74
17855;BME280;9053;53.358;6.382;2023-05-20T04:36:14;102678.69;;;12.00;89.64
17855;BME280;9053;53.358;6.382;2023-05-20T04:38:46;102676.88;;;11.99;89.67
17855;BME280;9053;53.358;6.382;2023-05-20T04:41:18;102673.25;;;11.97;89.57
17855;BME280;9053;53.358;6.382;2023-05-20T04:43:48;102679.78;;;12.04;89.55
17855;BME280;9053;53.358;6.382;2023-05-20T04:46:21;102679.72;;;12.02;89.43
17855;BME280;9053;53.358;6.382;2023-05-20T04:48:54;102680.69;;;12.04;89.42
17855;BME280;9053;53.358;6.382;2023-05-20T04:51:33;102680.16;;;12.10;89.41
17855;BME280;9053;53.358;6.382;2023-05-20T04:54:06;102684.00;;;12.17;89.40
17855;BME280;9053;53.358;6.382;2023-05-20T04:56:47;102677.69;;;12.29;89.32
17855;BME280;9053;53.358;6.382;2023-05-20T04:59:17;102681.59;;;12.36;89.28
17855;BME280;9053;53.358;6.382;2023-05-20T05:07:34;102666.63;;;13.01;88.64
17855;BME280;9053;53.358;6.382;2023-05-20T05:18:30;102684.44;;;14.45;86.04
17855;BME280;9053;53.358;6.382;2023-05-20T05:21:00;102676.84;;;14.70;85.05
17855;BME280;9053;53.358;6.382;2023-05-20T05:23:38;102681.66;;;14.99;84.63
17855;BME280;9053;53.358;6.382;2023-05-20T05:26:08;102673.94;;;15.24;83.75
17855;BME280;9053;53.358;6.382;2023-05-20T05:28:43;102676.09;;;15.33;82.44
17855;BME280;9053;53.358;6.382;2023-05-20T05:31:13;102685.47;;;15.25;81.27
17855;BME280;9053;53.358;6.382;2023-05-20T05:41:42;102675.13;;;15.31;79.15
17855;BME280;9053;53.358;6.382;2023-05-20T05:44:12;102679.88;;;15.38;78.52
17855;BME280;9053;53.358;6.382;2023-05-20T05:46:42;102685.69;;;15.50;78.37
17855;BME280;9053;53.358;6.382;2023-05-20T05:49:15;102683.09;;;15.31;77.67
17855;BME280;9053;53.358;6.382;2023-05-20T05:51:46;102685.38;;;15.43;77.75
17855;BME280;9053;53.358;6.382;2023-05-20T05:54:16;102680.66;;;15.56;77.34
17855;BME280;9053;53.358;6.382;2023-05-20T05:56:54;102682.31;;;15.54;77.03
17855;BME280;9053;53.358;6.382;2023-05-20T05:59:27;102672.75;;;15.58;77.02
17855;BME280;9053;53.358;6.382;2023-05-20T06:01:57;102670.25;;;15.82;76.88
17855;BME280;9053;53.358;6.382;2023-05-20T06:04:29;102675.28;;;15.97;76.40
17855;BME280;9053;53.358;6.382;2023-05-20T06:06:59;102679.09;;;16.04;76.22
17855;BME280;9053;53.358;6.382;2023-05-20T06:09:35;102669.66;;;16.10;76.07
17855;BME280;9053;53.358;6.382;2023-05-20T06:12:16;102675.38;;;15.98;75.82
17855;BME280;9053;53.358;6.382;2023-05-20T06:14:58;102670.56;;;16.11;75.93
17855;BME280;9053;53.358;6.382;2023-05-20T06:17:28;102670.66;;;16.14;75.88
17855;BME280;9053;53.358;6.382;2023-05-20T06:20:00;102677.75;;;15.92;75.99
17855;BME280;9053;53.358;6.382;2023-05-20T06:22:30;102670.44;;;15.87;76.19
17855;BME280;9053;53.358;6.382;2023-05-20T06:25:00;102669.66;;;15.89;76.56
17855;BME280;9053;53.358;6.382;2023-05-20T06:27:35;102665.41;;;15.93;76.71
17855;BME280;9053;53.358;6.382;2023-05-20T06:30:15;102664.75;;;15.98;77.09
17855;BME280;9053;53.358;6.382;2023-05-20T06:32:48;102665.47;;;16.17;77.62
17855;BME280;9053;53.358;6.382;2023-05-20T06:35:18;102673.84;;;16.28;78.00
17855;BME280;9053;53.358;6.382;2023-05-20T06:37:48;102665.84;;;16.26;78.02
17855;BME280;9053;53.358;6.382;2023-05-20T06:40:24;102661.25;;;16.44;78.44
17855;BME280;9053;53.358;6.382;2023-05-20T06:42:57;102679.66;;;16.40;77.76
17855;BME280;9053;53.358;6.382;2023-05-20T06:45:27;102671.34;;;16.31;77.40
17855;BME280;9053;53.358;6.382;2023-05-20T06:48:01;102666.06;;;16.32;77.46
17855;BME280;9053;53.358;6.382;2023-05-20T06:50:31;102674.78;;;16.28;77.36
17855;BME280;9053;53.358;6.382;2023-05-20T06:53:04;102665.59;;;16.20;77.18
17855;BME280;9053;53.358;6.382;2023-05-20T06:55:34;102665.28;;;16.12;77.04
17855;BME280;9053;53.358;6.382;2023-05-20T06:58:12;102661.50;;;16.28;77.43
17855;BME280;9053;53.358;6.382;2023-05-20T07:00:47;102672.94;;;16.50;77.83
17855;BME280;9053;53.358;6.382;2023-05-20T07:03:31;102660.34;;;16.44;77.75
17855;BME280;9053;53.358;6.382;2023-05-20T07:06:03;102665.44;;;16.38;77.78
17855;BME280;9053;53.358;6.382;2023-05-20T07:08:34;102664.97;;;16.50;77.92
17855;BME280;9053;53.358;6.382;2023-05-20T07:11:08;102648.94;;;16.47;77.81
17855;BME280;9053;53.358;6.382;2023-05-20T07:13:45;102650.50;;;16.64;78.05
17855;BME280;9053;53.358;6.382;2023-05-20T07:16:19;102653.25;;;16.67;77.71
17855;BME280;9053;53.358;6.382;2023-05-20T07:18:49;102643.13;;;16.79;77.96
17855;BME280;9053;53.358;6.382;2023-05-20T07:21:22;102645.59;;;16.99;77.96
17855;BME280;9053;53.358;6.382;2023-05-20T07:23:52;102643.31;;;16.85;77.46
17855;BME280;9053;53.358;6.382;2023-05-20T07:26:24;102643.56;;;16.92;77.82
17855;BME280;9053;53.358;6.382;2023-05-20T07:28:59;102640.03;;;16.91;77.55
17855;BME280;9053;53.358;6.382;2023-05-20T07:31:30;102643.56;;;16.92;77.59
17855;BME280;9053;53.358;6.382;2023-05-20T07:34:06;102656.25;;;16.76;77.46
17855;BME280;9053;53.358;6.382;2023-05-20T07:36:36;102646.97;;;16.65;77.28
17855;BME280;9053;53.358;6.382;2023-05-20T07:39:06;102656.13;;;16.49;77.34
17855;BME280;9053;53.358;6.382;2023-05-20T07:41:53;102641.69;;;16.42;77.30
17855;BME280;9053;53.358;6.382;2023-05-20T07:44:31;102633.91;;;16.47;77.66
17855;BME280;9053;53.358;6.382;2023-05-20T07:47:01;102631.53;;;16.55;77.58
17855;BME280;9053;53.358;6.382;2023-05-20T07:49:35;102631.91;;;16.41;77.40
17855;BME280;9053;53.358;6.382;2023-05-20T07:52:08;102636.84;;;16.55;77.79
17855;BME280;9053;53.358;6.382;2023-05-20T07:54:40;102635.09;;;16.78;77.78
17855;BME280;9053;53.358;6.382;2023-05-20T07:57:14;102641.91;;;16.71;77.09
17855;BME280;9053;53.358;6.382;2023-05-20T07:59:46;102636.94;;;16.58;77.09
17855;BME280;9053;53.358;6.382;2023-05-20T08:02:19;102628.38;;;16.65;76.96
17855;BME280;9053;53.358;6.382;2023-05-20T08:04:49;102632.50;;;16.79;77.24
17855;BME280;9053;53.358;6.382;2023-05-20T08:07:18;102641.84;;;16.70;76.30
17855;BME280;9053;53.358;6.382;2023-05-20T08:09:51;102634.75;;;16.70;76.23
17855;BME280;9053;53.358;6.382;2023-05-20T08:12:24;102631.78;;;16.61;75.93
17855;BME280;9053;53.358;6.382;2023-05-20T08:14:57;102621.88;;;16.79;76.38
17855;BME280;9053;53.358;6.382;2023-05-20T08:17:26;102630.69;;;16.78;76.12
17855;BME280;9053;53.358;6.382;2023-05-20T08:19:56;102628.69;;;16.97;76.40
17855;BME280;9053;53.358;6.382;2023-05-20T08:22:26;102622.53;;;16.98;75.97
17855;BME280;9053;53.358;6.382;2023-05-20T08:24:57;102627.81;;;16.96;75.76
17855;BME280;9053;53.358;6.382;2023-05-20T08:27:27;102611.63;;;16.90;75.56
17855;BME280;9053;53.358;6.382;2023-05-20T08:29:59;102612.75;;;16.97;75.70
17855;BME280;9053;53.358;6.382;2023-05-20T08:32:30;102614.66;;;17.01;75.58
17855;BME280;9053;53.358;6.382;2023-05-20T08:35:00;102612.56;;;17.16;75.71
17855;BME280;9053;53.358;6.382;2023-05-20T08:37:30;102618.69;;;17.15;75.14
17855;BME280;9053;53.358;6.382;2023-05-20T08:40:00;102617.09;;;16.95;74.64
17855;BME280;9053;53.358;6.382;2023-05-20T08:42:31;102613.03;;;17.04;74.78
17855;BME280;9053;53.358;6.382;2023-05-20T08:45:07;102613.34;;;17.14;74.66
17855;BME280;9053;53.358;6.382;2023-05-20T08:47:41;102612.31;;;17.36;75.17
17855;BME280;9053;53.358;6.382;2023-05-20T08:50:13;102605.28;;;17.36;75.34
17855;BME280;9053;53.358;6.382;2023-05-20T08:52:44;102602.22;;;17.25;75.20
17855;BME280;9053;53.358;6.382;2023-05-20T08:55:19;102597.00;;;17.28;75.44
17855;BME280;9053;53.358;6.382;2023-05-20T08:57:53;102601.41;;;17.02;75.81
17855;BME280;9053;53.358;6.382;2023-05-20T09:00:26;102605.34;;;16.88;76.19
17855;BME280;9053;53.358;6.382;2023-05-20T09:02:57;102595.50;;;16.85;76.31
17855;BME280;9053;53.358;6.382;2023-05-20T09:05:28;102604.53;;;16.91;76.85
17855;BME280;9053;53.358;6.382;2023-05-20T09:08:05;102590.19;;;16.85;76.88
17855;BME280;9053;53.358;6.382;2023-05-20T09:10:36;102592.56;;;16.78;77.10
17855;BME280;9053;53.358;6.382;2023-05-20T09:13:07;102596.63;;;16.92;78.01
17855;BME280;9053;53.358;6.382;2023-05-20T09:15:40;102588.13;;;17.02;78.25
17855;BME280;9053;53.358;6.382;2023-05-20T09:18:10;102582.38;;;17.16;78.24
17855;BME280;9053;53.358;6.382;2023-05-20T09:20:40;102597.25;;;17.09;77.88
17855;BME280;9053;53.358;6.382;2023-05-20T09:23:10;102584.41;;;16.97;77.92
17855;BME280;9053;53.358;6.382;2023-05-20T09:25:40;102579.44;;;16.82;77.96
17855;BME280;9053;53.358;6.382;2023-05-20T09:28:10;102588.97;;;16.77;78.69
17855;BME280;9053;53.358;6.382;2023-05-20T09:30:42;102583.94;;;16.83;79.08
17855;BME280;9053;53.358;6.382;2023-05-20T09:33:12;102583.56;;;16.74;79.08
17855;BME280;9053;53.358;6.382;2023-05-20T09:35:43;102589.50;;;16.67;79.47
17855;BME280;9053;53.358;6.382;2023-05-20T09:38:16;102583.03;;;16.60;79.99
17855;BME280;9053;53.358;6.382;2023-05-20T09:40:46;102592.22;;;16.69;80.54
17855;BME280;9053;53.358;6.382;2023-05-20T09:43:17;102577.91;;;16.65;80.56
17855;BME280;9053;53.358;6.382;2023-05-20T09:45:56;102571.75;;;16.66;80.55
17855;BME280;9053;53.358;6.382;2023-05-20T09:48:34;102578.78;;;16.65;80.63
17855;BME280;9053;53.358;6.382;2023-05-20T09:51:08;102572.41;;;16.60;81.32
17855;BME280;9053;53.358;6.382;2023-05-20T09:53:39;102566.72;;;16.50;81.28
17855;BME280;9053;53.358;6.382;2023-05-20T09:56:11;102563.94;;;16.47;81.68
17855;BME280;9053;53.358;6.382;2023-05-20T09:58:43;102557.75;;;16.46;81.88
17855;BME280;9053;53.358;6.382;2023-05-20T10:01:28;102568.41;;;16.48;82.34
17855;BME280;9053;53.358;6.382;2023-05-20T10:03:58;102554.78;;;16.62;82.45
17855;BME280;9053;53.358;6.382;2023-05-20T10:06:49;102559.50;;;16.46;82.07
17855;BME280;9053;53.358;6.382;2023-05-20T10:09:35;102557.00;;;16.50;82.54
17855;BME280;9053;53.358;6.382;2023-05-20T10:12:17;102554.66;;;16.35;82.32
17855;BME280;9053;53.358;6.382;2023-05-20T10:14:58;102554.66;;;16.35;82.61
17855;BME280;9053;53.358;6.382;2023-05-20T10:17:41;102554.38;;;16.28;82.86
17855;BME280;9053;53.358;6.382;2023-05-20T10:20:16;102550.53;;;16.19;82.91
17855;BME280;9053;53.358;6.382;2023-05-20T10:22:54;102542.69;;;16.22;83.28
17855;BME280;9053;53.358;6.382;2023-05-20T10:25:27;102549.13;;;16.29;83.51
17855;BME280;9053;53.358;6.382;2023-05-20T10:28:07;102542.97;;;16.30;83.20
17855;BME280;9053;53.358;6.382;2023-05-20T10:30:37;102539.03;;;16.19;83.11
17855;BME280;9053;53.358;6.382;2023-05-20T10:33:42;102532.34;;;16.30;83.85
17855;BME280;9053;53.358;6.382;2023-05-20T10:36:22;102535.94;;;16.31;83.70
17855;BME280;9053;53.358;6.382;2023-05-20T10:38:54;102535.47;;;16.18;83.87
17855;BME280;9053;53.358;6.382;2023-05-20T10:41:26;102534.09;;;16.30;84.49
17855;BME280;9053;53.358;6.382;2023-05-20T10:44:01;102538.97;;;16.41;84.54
17855;BME280;9053;53.358;6.382;2023-05-20T10:46:34;102522.94;;;16.38;84.47
17855;BME280;9053;53.358;6.382;2023-05-20T10:49:32;102517.16;;;16.50;84.62
17855;BME280;9053;53.358;6.382;2023-05-20T10:52:05;102522.44;;;16.49;84.50
17855;BME280;9053;53.358;6.382;2023-05-20T10:54:41;102528.78;;;16.30;84.18
17855;BME280;9053;53.358;6.382;2023-05-20T10:57:15;102510.19;;;16.28;84.53
17855;BME280;9053;53.358;6.382;2023-05-20T10:59:48;102512.44;;;16.41;85.09
17855;BME280;9053;53.358;6.382;2023-05-20T11:02:19;102518.69;;;16.43;84.68
17855;BME280;9053;53.358;6.382;2023-05-20T11:04:55;102521.97;;;16.36;84.71
17855;BME280;9053;53.358;6.382;2023-05-20T11:07:26;102509.31;;;16.29;84.64
17855;BME280;9053;53.358;6.382;2023-05-20T11:09:56;102528.06;;;16.34;84.90
17855;BME280;9053;53.358;6.382;2023-05-20T11:12:26;102519.25;;;16.35;84.92
17855;BME280;9053;53.358;6.382;2023-05-20T11:14:56;102508.59;;;16.33;85.07
17855;BME280;9053;53.358;6.382;2023-05-20T11:17:26;102523.91;;;16.40;85.15
17855;BME280;9053;53.358;6.382;2023-05-20T11:20:00;102505.34;;;16.42;84.92
17855;BME280;9053;53.358;6.382;2023-05-20T11:22:35;102504.97;;;16.31;84.59
17855;BME280;9053;53.358;6.382;2023-05-20T11:25:09;102497.69;;;16.26;84.59
17855;BME280;9053;53.358;6.382;2023-05-20T11:27:39;102504.00;;;16.29;84.86
17855;BME280;9053;53.358;6.382;2023-05-20T11:30:11;102491.44;;;16.25;84.68
17855;BME280;9053;53.358;6.382;2023-05-20T11:32:57;102496.38;;;16.38;85.16
17855;BME280;9053;53.358;6.382;2023-05-20T11:35:43;102500.22;;;16.47;85.20
17855;BME280;9053;53.358;6.382;2023-05-20T11:38:16;102491.28;;;16.44;85.12
17855;BME280;9053;53.358;6.382;2023-05-20T11:40:51;102484.34;;;16.48;85.31
17855;BME280;9053;53.358;6.382;2023-05-20T11:43:25;102481.19;;;16.60;85.45
17855;BME280;9053;53.358;6.382;2023-05-20T11:45:56;102475.19;;;16.65;85.20
17855;BME280;9053;53.358;6.382;2023-05-20T11:48:30;102485.94;;;16.69;85.14
17855;BME280;9053;53.358;6.382;2023-05-20T11:51:05;102477.19;;;16.71;85.20
17855;BME280;9053;53.358;6.382;2023-05-20T11:53:39;102482.34;;;16.66;84.99
17855;BME280;9053;53.358;6.382;2023-05-20T11:56:09;102478.00;;;16.70;85.13
17855;BME280;9053;53.358;6.382;2023-05-20T11:58:42;102472.69;;;16.70;85.18
17855;BME280;9053;53.358;6.382;2023-05-20T12:01:12;102460.84;;;16.84;85.46
17855;BME280;9053;53.358;6.382;2023-05-20T12:03:48;102466.22;;;16.86;85.14
17855;BME280;9053;53.358;6.382;2023-05-20T12:06:21;102460.75;;;16.81;85.00
17855;BME280;9053;53.358;6.382;2023-05-20T12:08:51;102451.09;;;16.85;85.32
17855;BME280;9053;53.358;6.382;2023-05-20T12:11:21;102448.84;;;16.97;85.72
17855;BME280;9053;53.358;6.382;2023-05-20T12:13:51;102457.88;;;17.02;85.42
17855;BME280;9053;53.358;6.382;2023-05-20T12:16:27;102451.03;;;17.09;85.43
17855;BME280;9053;53.358;6.382;2023-05-20T12:18:59;102469.22;;;17.24;85.00
17855;BME280;9053;53.358;6.382;2023-05-20T12:21:34;102443.16;;;17.12;84.65
17855;BME280;9053;53.358;6.382;2023-05-20T12:24:06;102444.69;;;17.05;84.55
17855;BME280;9053;53.358;6.382;2023-05-20T12:26:49;102448.91;;;16.99;84.53
17855;BME280;9053;53.358;6.382;2023-05-20T12:29:21;102449.66;;;16.95;84.56
17855;BME280;9053;53.358;6.382;2023-05-20T12:31:51;102449.09;;;17.05;84.75
17855;BME280;9053;53.358;6.382;2023-05-20T12:34:23;102444.69;;;17.05;84.46
17855;BME280;9053;53.358;6.382;2023-05-20T12:37:06;102447.41;;;17.07;84.70
17855;BME280;9053;53.358;6.382;2023-05-20T12:39:39;102445.41;;;17.00;84.76
17855;BME280;9053;53.358;6.382;2023-05-20T12:42:10;102446.50;;;17.06;84.87
17855;BME280;9053;53.358;6.382;2023-05-20T12:44:44;102448.56;;;17.15;85.08
17855;BME280;9053;53.358;6.382;2023-05-20T12:47:13;102443.88;;;17.08;85.09
17855;BME280;9053;53.358;6.382;2023-05-20T12:49:46;102437.75;;;17.11;85.29
17855;BME280;9053;53.358;6.382;2023-05-20T12:52:20;102428.25;;;17.17;85.35
17855;BME280;9053;53.358;6.382;2023-05-20T12:54:50;102434.59;;;17.22;85.46
17855;BME280;9053;53.358;6.382;2023-05-20T12:57:25;102415.50;;;17.07;85.12
17855;BME280;9053;53.358;6.382;2023-05-20T12:59:58;102417.44;;;17.11;85.53
17855;BME280;9053;53.358;6.382;2023-05-20T13:02:28;102413.28;;;17.21;85.83
17855;BME280;9053;53.358;6.382;2023-05-20T13:04:59;102413.16;;;17.16;85.47
17855;BME280;9053;53.358;6.382;2023-05-20T13:07:33;102400.53;;;17.11;85.49
17855;BME280;9053;53.358;6.382;2023-05-20T13:10:06;102404.31;;;17.17;85.71
17855;BME280;9053;53.358;6.382;2023-05-20T13:12:37;102402.06;;;17.31;85.61
17855;BME280;9053;53.358;6.382;2023-05-20T13:15:12;102398.56;;;17.32;85.21
17855;BME280;9053;53.358;6.382;2023-05-20T13:17:44;102385.28;;;17.32;84.88
17855;BME280;9053;53.358;6.382;2023-05-20T13:20:16;102389.13;;;17.42;85.17
17855;BME280;9053;53.358;6.382;2023-05-20T13:22:51;102379.44;;;17.44;85.07
17855;BME280;9053;53.358;6.382;2023-05-20T13:25:21;102384.84;;;17.47;85.16
17855;BME280;9053;53.358;6.382;2023-05-20T13:27:50;102384.25;;;17.57;85.14
17855;BME280;9053;53.358;6.382;2023-05-20T13:30:25;102376.06;;;17.49;84.26
17855;BME280;9053;53.358;6.382;2023-05-20T13:32:55;102365.34;;;17.48;84.01
17855;BME280;9053;53.358;6.382;2023-05-20T13:35:29;102379.59;;;17.50;83.84
17855;BME280;9053;53.358;6.382;2023-05-20T13:38:05;102377.69;;;17.46;83.97
17855;BME280;9053;53.358;6.382;2023-05-20T13:40:41;102381.09;;;17.40;83.78
17855;BME280;9053;53.358;6.382;2023-05-20T13:43:16;102366.91;;;17.40;83.71
17855;BME280;9053;53.358;6.382;2023-05-20T13:45:50;102388.53;;;17.52;83.71
17855;BME280;9053;53.358;6.382;2023-05-20T13:48:24;102393.88;;;17.52;82.83
17855;BME280;9053;53.358;6.382;2023-05-20T13:50:59;102371.56;;;17.48;82.54
17855;BME280;9053;53.358;6.382;2023-05-20T13:53:36;102362.75;;;17.49;82.27
17855;BME280;9053;53.358;6.382;2023-05-20T13:56:08;102375.47;;;17.60;82.91
17855;BME280;9053;53.358;6.382;2023-05-20T13:58:41;102374.81;;;17.68;82.76
17855;BME280;9053;53.358;6.382;2023-05-20T14:01:12;102371.41;;;17.72;82.31
17855;BME280;9053;53.358;6.382;2023-05-20T14:03:44;102353.91;;;17.81;82.07
17855;BME280;9053;53.358;6.382;2023-05-20T14:06:20;102346.13;;;17.87;81.83
17855;BME280;9053;53.358;6.382;2023-05-20T14:08:55;102355.22;;;17.97;81.81
17855;BME280;9053;53.358;6.382;2023-05-20T14:11:25;102353.44;;;17.95;81.60
17855;BME280;9053;53.358;6.382;2023-05-20T14:13:54;102344.81;;;18.04;81.86
17855;BME280;9053;53.358;6.382;2023-05-20T14:16:34;102343.06;;;18.06;80.90
17855;BME280;9053;53.358;6.382;2023-05-20T14:19:07;102328.78;;;18.03;80.05
17855;BME280;9053;53.358;6.382;2023-05-20T14:21:37;102339.03;;;17.87;78.83